sensor_id;sensor_type;location;lat;lon;timestamp;temperature;humidity
9772;DHT22;4925;52.588;13.370;2023-04-25T00:00:52;9.20;99.90
9772;DHT22;4925;52.588;13.370;2023-04-25T00:03:18;9.20;99.90
9772;DHT22;4925;52.588;13.370;2023-04-25T00:05:44;9.20;99.90
9772;DHT22;4925;52.588;13.370;2023-04-25T00:08:11;9.20;99.90
9772;DHT22;4925;52.588;13.370;2023-04-25T00:10:36;9.20;99.90
9772;DHT22;4925;52.588;13.370;2023-04-25T00:13:02;9.20;99.90
9772;DHT22;4925;52.588;13.370;2023-04-25T00:15:28;9.20;99.90
9772;DHT22;4925;52.588;13.370;2023-04-25T00:17:56;9.20;99.90
9772;DHT22;4925;52.588;13.370;2023-04-25T00:20:22;9.10;99.90
9772;DHT22;4925;52.588;13.370;2023-04-25T00:22:49;9.10;99.90
9772;DHT22;4925;52.588;13.370;2023-04-25T00:25:14;9.20;99.90
9772;DHT22;4925;52.588;13.370;2023-04-25T00:27:40;9.20;99.90
9772;DHT22;4925;52.588;13.370;2023-04-25T00:30:07;9.10;99.90
9772;DHT22;4925;52.588;13.370;2023-04-25T00:32:33;9.00;99.90
9772;DHT22;4925;52.588;13.370;2023-04-25T00:34:59;9.00;99.90
9772;DHT22;4925;52.588;13.370;2023-04-25T00:37:24;9.10;99.90
9772;DHT22;4925;52.588;13.370;2023-04-25T00:39:50;9.10;99.90
9772;DHT22;4925;52.588;13.370;2023-04-25T00:42:16;9.00;99.90
9772;DHT22;4925;52.588;13.370;2023-04-25T00:44:43;9.00;99.90
9772;DHT22;4925;52.588;13.370;2023-04-25T00:47:08;9.00;99.90
9772;DHT22;4925;52.588;13.370;2023-04-25T00:49:36;9.00;99.90
9772;DHT22;4925;52.588;13.370;2023-04-25T00:52:01;9.00;99.90
9772;DHT22;4925;52.588;13.370;2023-04-25T00:54:27;9.00;99.90
9772;DHT22;4925;52.588;13.370;2023-04-25T00:56:53;9.00;99.90
9772;DHT22;4925;52.588;13.370;2023-04-25T00:59:19;9.00;99.90
9772;DHT22;4925;52.588;13.370;2023-04-25T01:01:46;9.10;99.90
9772;DHT22;4925;52.588;13.370;2023-04-25T01:04:13;9.00;99.90
9772;DHT22;4925;52.588;13.370;2023-04-25T01:06:38;8.90;99.90
9772;DHT22;4925;52.588;13.370;2023-04-25T01:09:04;9.00;99.90
9772;DHT22;4925;52.588;13.370;2023-04-25T01:11:30;8.90;99.90
9772;DHT22;4925;52.588;13.370;2023-04-25T01:13:56;8.90;99.90
9772;DHT22;4925;52.588;13.370;2023-04-25T01:16:22;8.90;99.90
9772;DHT22;4925;52.588;13.370;2023-04-25T01:18:50;8.90;99.90
9772;DHT22;4925;52.588;13.370;2023-04-25T01:21:16;8.90;99.90
9772;DHT22;4925;52.588;13.370;2023-04-25T01:23:42;8.90;99.90
9772;DHT22;4925;52.588;13.370;2023-04-25T01:26:12;8.80;99.90
9772;DHT22;4925;52.588;13.370;2023-04-25T01:28:39;8.80;99.90
9772;DHT22;4925;52.588;13.370;2023-04-25T01:31:08;8.90;99.90
9772;DHT22;4925;52.588;13.370;2023-04-25T01:33:34;8.90;99.90
9772;DHT22;4925;52.588;13.370;2023-04-25T01:36:00;8.90;99.90
9772;DHT22;4925;52.588;13.370;2023-04-25T01:38:26;8.90;99.90
9772;DHT22;4925;52.588;13.370;2023-04-25T01:40:51;8.90;99.90
9772;DHT22;4925;52.588;13.370;2023-04-25T01:43:19;8.90;99.90
9772;DHT22;4925;52.588;13.370;2023-04-25T01:45:45;8.90;99.90
9772;DHT22;4925;52.588;13.370;2023-04-25T01:48:12;8.90;99.90
9772;DHT22;4925;52.588;13.370;2023-04-25T01:50:39;8.90;99.90
9772;DHT22;4925;52.588;13.370;2023-04-25T01:53:05;8.80;99.90
9772;DHT22;4925;52.588;13.370;2023-04-25T01:55:31;8.80;99.90
9772;DHT22;4925;52.588;13.370;2023-04-25T01:57:57;8.80;99.90
9772;DHT22;4925;52.588;13.370;2023-04-25T02:00:24;8.80;99.90
9772;DHT22;4925;52.588;13.370;2023-04-25T02:02:49;8.80;99.90
9772;DHT22;4925;52.588;13.370;2023-04-25T02:05:16;8.80;99.90
9772;DHT22;4925;52.588;13.370;2023-04-25T02:07:42;8.90;99.90
9772;DHT22;4925;52.588;13.370;2023-04-25T02:10:09;8.90;99.90
9772;DHT22;4925;52.588;13.370;2023-04-25T02:12:35;8.90;99.90
9772;DHT22;4925;52.588;13.370;2023-04-25T02:15:01;8.90;99.90
9772;DHT22;4925;52.588;13.370;2023-04-25T02:17:27;8.90;99.90
9772;DHT22;4925;52.588;13.370;2023-04-25T02:19:53;8.90;99.90
9772;DHT22;4925;52.588;13.370;2023-04-25T02:22:19;8.80;99.90
9772;DHT22;4925;52.588;13.370;2023-04-25T02:24:45;8.80;99.90
9772;DHT22;4925;52.588;13.370;2023-04-25T02:27:10;8.70;99.90
9772;DHT22;4925;52.588;13.370;2023-04-25T02:29:36;8.70;99.90
9772;DHT22;4925;52.588;13.370;2023-04-25T02:32:02;8.70;99.90
9772;DHT22;4925;52.588;13.370;2023-04-25T02:34:28;8.60;99.90
9772;DHT22;4925;52.588;13.370;2023-04-25T02:36:53;8.70;99.90
9772;DHT22;4925;52.588;13.370;2023-04-25T02:39:19;8.70;99.90
9772;DHT22;4925;52.588;13.370;2023-04-25T02:41:45;8.80;99.90
9772;DHT22;4925;52.588;13.370;2023-04-25T02:44:10;8.80;99.90
9772;DHT22;4925;52.588;13.370;2023-04-25T02:46:36;8.80;99.90
9772;DHT22;4925;52.588;13.370;2023-04-25T02:49:02;8.80;99.90
9772;DHT22;4925;52.588;13.370;2023-04-25T02:51:27;8.70;99.90
9772;DHT22;4925;52.588;13.370;2023-04-25T02:53:53;8.70;99.90
9772;DHT22;4925;52.588;13.370;2023-04-25T02:56:19;8.70;99.90
9772;DHT22;4925;52.588;13.370;2023-04-25T02:58:45;8.60;99.90
9772;DHT22;4925;52.588;13.370;2023-04-25T03:01:10;8.70;99.90
9772;DHT22;4925;52.588;13.370;2023-04-25T03:03:36;8.70;99.90
9772;DHT22;4925;52.588;13.370;2023-04-25T03:06:02;8.70;99.90
9772;DHT22;4925;52.588;13.370;2023-04-25T03:08:27;8.70;99.90
9772;DHT22;4925;52.588;13.370;2023-04-25T03:10:58;8.70;99.90
9772;DHT22;4925;52.588;13.370;2023-04-25T03:13:24;8.80;99.90
9772;DHT22;4925;52.588;13.370;2023-04-25T03:15:49;8.80;99.90
9772;DHT22;4925;52.588;13.370;2023-04-25T03:18:15;8.70;99.90
9772;DHT22;4925;52.588;13.370;2023-04-25T03:20:41;8.80;99.90
9772;DHT22;4925;52.588;13.370;2023-04-25T03:23:07;8.80;99.90
9772;DHT22;4925;52.588;13.370;2023-04-25T03:25:33;8.70;99.90
9772;DHT22;4925;52.588;13.370;2023-04-25T03:27:58;8.70;99.90
9772;DHT22;4925;52.588;13.370;2023-04-25T03:30:24;8.70;99.90
9772;DHT22;4925;52.588;13.370;2023-04-25T03:32:50;8.60;99.90
9772;DHT22;4925;52.588;13.370;2023-04-25T03:35:15;8.70;99.90
9772;DHT22;4925;52.588;13.370;2023-04-25T03:37:41;8.60;99.90
9772;DHT22;4925;52.588;13.370;2023-04-25T03:40:11;8.60;99.90
9772;DHT22;4925;52.588;13.370;2023-04-25T03:42:37;8.60;99.90
9772;DHT22;4925;52.588;13.370;2023-04-25T03:45:02;8.60;99.90
9772;DHT22;4925;52.588;13.370;2023-04-25T03:47:28;8.60;99.90
9772;DHT22;4925;52.588;13.370;2023-04-25T03:49:54;8.60;99.90
9772;DHT22;4925;52.588;13.370;2023-04-25T03:52:20;8.60;99.90
9772;DHT22;4925;52.588;13.370;2023-04-25T03:54:46;8.60;99.90
9772;DHT22;4925;52.588;13.370;2023-04-25T03:57:11;8.60;99.90
9772;DHT22;4925;52.588;13.370;2023-04-25T03:59:37;8.50;99.90
9772;DHT22;4925;52.588;13.370;2023-04-25T04:02:03;8.60;99.90
9772;DHT22;4925;52.588;13.370;2023-04-25T04:04:28;8.60;99.90
9772;DHT22;4925;52.588;13.370;2023-04-25T04:06:55;8.60;99.90
9772;DHT22;4925;52.588;13.370;2023-04-25T04:09:21;8.50;99.90
9772;DHT22;4925;52.588;13.370;2023-04-25T04:11:46;8.60;99.90
9772;DHT22;4925;52.588;13.370;2023-04-25T04:14:12;8.70;99.90
9772;DHT22;4925;52.588;13.370;2023-04-25T04:16:38;8.70;99.90
9772;DHT22;4925;52.588;13.370;2023-04-25T04:19:04;8.80;99.90
9772;DHT22;4925;52.588;13.370;2023-04-25T04:21:29;8.70;99.90
9772;DHT22;4925;52.588;13.370;2023-04-25T04:23:55;8.80;99.90
9772;DHT22;4925;52.588;13.370;2023-04-25T04:26:23;8.70;99.90
9772;DHT22;4925;52.588;13.370;2023-04-25T04:28:52;8.70;99.90
9772;DHT22;4925;52.588;13.370;2023-04-25T04:31:20;8.80;99.90
9772;DHT22;4925;52.588;13.370;2023-04-25T04:33:45;8.70;99.90
9772;DHT22;4925;52.588;13.370;2023-04-25T04:36:12;8.80;99.90
9772;DHT22;4925;52.588;13.370;2023-04-25T04:38:38;8.90;99.90
9772;DHT22;4925;52.588;13.370;2023-04-25T04:41:04;8.90;99.90
9772;DHT22;4925;52.588;13.370;2023-04-25T04:43:30;8.90;99.90
9772;DHT22;4925;52.588;13.370;2023-04-25T04:45:56;8.70;99.90
9772;DHT22;4925;52.588;13.370;2023-04-25T04:48:22;8.70;99.90
9772;DHT22;4925;52.588;13.370;2023-04-25T04:50:47;8.70;99.90
9772;DHT22;4925;52.588;13.370;2023-04-25T04:53:13;8.70;99.90
9772;DHT22;4925;52.588;13.370;2023-04-25T04:55:39;8.70;99.90
9772;DHT22;4925;52.588;13.370;2023-04-25T04:58:06;8.70;99.90
9772;DHT22;4925;52.588;13.370;2023-04-25T05:00:32;8.80;99.90
9772;DHT22;4925;52.588;13.370;2023-04-25T05:02:58;8.70;99.90
9772;DHT22;4925;52.588;13.370;2023-04-25T05:05:24;8.80;99.90
9772;DHT22;4925;52.588;13.370;2023-04-25T05:07:50;8.70;99.90
9772;DHT22;4925;52.588;13.370;2023-04-25T05:10:17;8.70;99.90
9772;DHT22;4925;52.588;13.370;2023-04-25T05:12:43;8.70;99.90
9772;DHT22;4925;52.588;13.370;2023-04-25T05:15:09;8.80;99.90
9772;DHT22;4925;52.588;13.370;2023-04-25T05:17:35;8.80;99.90
9772;DHT22;4925;52.588;13.370;2023-04-25T05:20:01;8.80;99.90
9772;DHT22;4925;52.588;13.370;2023-04-25T05:22:27;8.90;99.90
9772;DHT22;4925;52.588;13.370;2023-04-25T05:24:53;8.90;99.90
9772;DHT22;4925;52.588;13.370;2023-04-25T05:27:19;8.90;99.90
9772;DHT22;4925;52.588;13.370;2023-04-25T05:29:45;8.80;99.90
9772;DHT22;4925;52.588;13.370;2023-04-25T05:32:11;8.80;99.90
9772;DHT22;4925;52.588;13.370;2023-04-25T05:34:36;8.90;99.90
9772;DHT22;4925;52.588;13.370;2023-04-25T05:37:02;8.90;99.90
9772;DHT22;4925;52.588;13.370;2023-04-25T05:39:28;9.00;99.90
9772;DHT22;4925;52.588;13.370;2023-04-25T05:41:54;9.00;99.90
9772;DHT22;4925;52.588;13.370;2023-04-25T05:44:20;8.90;99.90
9772;DHT22;4925;52.588;13.370;2023-04-25T05:46:45;8.90;99.90
9772;DHT22;4925;52.588;13.370;2023-04-25T05:49:11;8.90;99.90
9772;DHT22;4925;52.588;13.370;2023-04-25T05:51:37;8.90;99.90
9772;DHT22;4925;52.588;13.370;2023-04-25T05:54:03;8.90;99.90
9772;DHT22;4925;52.588;13.370;2023-04-25T05:56:28;8.80;99.90
9772;DHT22;4925;52.588;13.370;2023-04-25T05:58:54;8.80;99.90
9772;DHT22;4925;52.588;13.370;2023-04-25T06:01:21;8.80;99.90
9772;DHT22;4925;52.588;13.370;2023-04-25T06:03:47;8.80;99.90
9772;DHT22;4925;52.588;13.370;2023-04-25T06:06:12;8.80;99.90
9772;DHT22;4925;52.588;13.370;2023-04-25T06:08:38;8.80;99.90
9772;DHT22;4925;52.588;13.370;2023-04-25T06:11:04;8.80;99.90
9772;DHT22;4925;52.588;13.370;2023-04-25T06:13:30;8.80;99.90
9772;DHT22;4925;52.588;13.370;2023-04-25T06:15:56;8.80;99.90
9772;DHT22;4925;52.588;13.370;2023-04-25T06:18:21;8.90;99.90
9772;DHT22;4925;52.588;13.370;2023-04-25T06:20:47;8.90;99.90
9772;DHT22;4925;52.588;13.370;2023-04-25T06:23:13;9.00;99.90
9772;DHT22;4925;52.588;13.370;2023-04-25T06:25:38;9.00;99.90
9772;DHT22;4925;52.588;13.370;2023-04-25T06:28:04;9.00;99.90
9772;DHT22;4925;52.588;13.370;2023-04-25T06:30:30;9.10;99.90
9772;DHT22;4925;52.588;13.370;2023-04-25T06:32:55;8.90;99.90
9772;DHT22;4925;52.588;13.370;2023-04-25T06:35:21;9.00;99.90
9772;DHT22;4925;52.588;13.370;2023-04-25T06:37:47;9.10;99.90
9772;DHT22;4925;52.588;13.370;2023-04-25T06:40:12;9.10;99.90
9772;DHT22;4925;52.588;13.370;2023-04-25T06:42:38;9.10;99.90
9772;DHT22;4925;52.588;13.370;2023-04-25T06:45:04;9.10;99.90
9772;DHT22;4925;52.588;13.370;2023-04-25T06:47:30;9.10;99.90
9772;DHT22;4925;52.588;13.370;2023-04-25T06:49:56;9.10;99.90
9772;DHT22;4925;52.588;13.370;2023-04-25T06:52:21;9.10;99.90
9772;DHT22;4925;52.588;13.370;2023-04-25T06:54:47;9.00;99.90
9772;DHT22;4925;52.588;13.370;2023-04-25T06:57:13;9.10;99.90
9772;DHT22;4925;52.588;13.370;2023-04-25T06:59:39;9.00;99.90
9772;DHT22;4925;52.588;13.370;2023-04-25T07:02:05;9.00;99.90
9772;DHT22;4925;52.588;13.370;2023-04-25T07:04:31;8.90;99.90
9772;DHT22;4925;52.588;13.370;2023-04-25T07:06:57;9.00;99.90
9772;DHT22;4925;52.588;13.370;2023-04-25T07:09:22;9.10;99.90
9772;DHT22;4925;52.588;13.370;2023-04-25T07:11:48;9.00;99.90
9772;DHT22;4925;52.588;13.370;2023-04-25T07:14:14;8.80;99.90
9772;DHT22;4925;52.588;13.370;2023-04-25T07:16:40;8.80;99.90
9772;DHT22;4925;52.588;13.370;2023-04-25T07:19:06;8.80;99.90
9772;DHT22;4925;52.588;13.370;2023-04-25T07:21:32;8.90;99.90
9772;DHT22;4925;52.588;13.370;2023-04-25T07:23:58;9.10;99.90
9772;DHT22;4925;52.588;13.370;2023-04-25T07:26:23;9.20;99.90
9772;DHT22;4925;52.588;13.370;2023-04-25T07:28:50;9.20;99.90
9772;DHT22;4925;52.588;13.370;2023-04-25T07:31:17;9.20;99.90
9772;DHT22;4925;52.588;13.370;2023-04-25T07:33:44;9.20;99.90
9772;DHT22;4925;52.588;13.370;2023-04-25T07:36:11;9.00;99.90
9772;DHT22;4925;52.588;13.370;2023-04-25T07:38:38;8.90;99.90
9772;DHT22;4925;52.588;13.370;2023-04-25T07:41:03;8.80;99.90
9772;DHT22;4925;52.588;13.370;2023-04-25T07:43:29;8.70;99.90
9772;DHT22;4925;52.588;13.370;2023-04-25T07:45:56;8.90;99.90
9772;DHT22;4925;52.588;13.370;2023-04-25T07:48:21;9.10;99.90
9772;DHT22;4925;52.588;13.370;2023-04-25T07:50:47;9.30;99.90
9772;DHT22;4925;52.588;13.370;2023-04-25T07:53:13;9.40;99.90
9772;DHT22;4925;52.588;13.370;2023-04-25T07:55:39;9.70;99.90
9772;DHT22;4925;52.588;13.370;2023-04-25T07:58:09;9.90;99.90
9772;DHT22;4925;52.588;13.370;2023-04-25T08:00:35;10.00;99.90
9772;DHT22;4925;52.588;13.370;2023-04-25T08:03:01;10.10;99.90
9772;DHT22;4925;52.588;13.370;2023-04-25T08:05:28;10.20;99.90
9772;DHT22;4925;52.588;13.370;2023-04-25T08:07:54;10.40;99.90
9772;DHT22;4925;52.588;13.370;2023-04-25T08:10:19;10.50;99.90
9772;DHT22;4925;52.588;13.370;2023-04-25T08:12:46;10.60;99.90
9772;DHT22;4925;52.588;13.370;2023-04-25T08:15:11;10.90;99.90
9772;DHT22;4925;52.588;13.370;2023-04-25T08:17:39;10.60;99.90
9772;DHT22;4925;52.588;13.370;2023-04-25T08:20:05;10.30;99.90
9772;DHT22;4925;52.588;13.370;2023-04-25T08:22:31;10.10;99.90
9772;DHT22;4925;52.588;13.370;2023-04-25T08:24:57;10.00;99.90
9772;DHT22;4925;52.588;13.370;2023-04-25T08:27:23;10.10;99.90
9772;DHT22;4925;52.588;13.370;2023-04-25T08:29:49;10.30;99.90
9772;DHT22;4925;52.588;13.370;2023-04-25T08:32:16;10.20;99.90
9772;DHT22;4925;52.588;13.370;2023-04-25T08:34:41;10.00;99.90
9772;DHT22;4925;52.588;13.370;2023-04-25T08:37:09;10.00;99.90
9772;DHT22;4925;52.588;13.370;2023-04-25T08:39:36;10.20;99.90
9772;DHT22;4925;52.588;13.370;2023-04-25T08:42:05;10.40;99.90
9772;DHT22;4925;52.588;13.370;2023-04-25T08:44:34;10.40;99.90
9772;DHT22;4925;52.588;13.370;2023-04-25T08:47:05;10.60;99.90
9772;DHT22;4925;52.588;13.370;2023-04-25T08:49:32;10.90;99.90
9772;DHT22;4925;52.588;13.370;2023-04-25T08:52:00;11.10;99.90
9772;DHT22;4925;52.588;13.370;2023-04-25T08:54:27;11.10;99.90
9772;DHT22;4925;52.588;13.370;2023-04-25T08:56:54;11.30;99.90
9772;DHT22;4925;52.588;13.370;2023-04-25T08:59:22;11.60;99.90
9772;DHT22;4925;52.588;13.370;2023-04-25T09:01:49;11.70;99.90
9772;DHT22;4925;52.588;13.370;2023-04-25T09:04:15;11.90;99.90
9772;DHT22;4925;52.588;13.370;2023-04-25T09:06:41;12.00;99.90
9772;DHT22;4925;52.588;13.370;2023-04-25T09:09:08;12.20;99.90
9772;DHT22;4925;52.588;13.370;2023-04-25T09:11:37;12.30;99.70
9772;DHT22;4925;52.588;13.370;2023-04-25T09:14:13;12.40;99.20
9772;DHT22;4925;52.588;13.370;2023-04-25T09:19:31;12.30;97.60
9772;DHT22;4925;52.588;13.370;2023-04-25T09:21:59;12.50;96.70
9772;DHT22;4925;52.588;13.370;2023-04-25T09:24:37;12.20;96.60
9772;DHT22;4925;52.588;13.370;2023-04-25T09:27:07;12.40;96.70
9772;DHT22;4925;52.588;13.370;2023-04-25T09:29:38;12.00;96.60
9772;DHT22;4925;52.588;13.370;2023-04-25T09:32:21;12.00;96.80
9772;DHT22;4925;52.588;13.370;2023-04-25T09:34:55;12.40;95.90
9772;DHT22;4925;52.588;13.370;2023-04-25T09:37:25;12.50;95.60
9772;DHT22;4925;52.588;13.370;2023-04-25T09:39:53;11.80;91.60
9772;DHT22;4925;52.588;13.370;2023-04-25T09:42:22;11.60;93.30
9772;DHT22;4925;52.588;13.370;2023-04-25T09:44:52;11.90;91.90
9772;DHT22;4925;52.588;13.370;2023-04-25T09:47:18;11.40;92.50
9772;DHT22;4925;52.588;13.370;2023-04-25T09:49:44;11.70;93.00
9772;DHT22;4925;52.588;13.370;2023-04-25T09:52:14;11.70;92.50
9772;DHT22;4925;52.588;13.370;2023-04-25T09:54:41;11.40;92.00
9772;DHT22;4925;52.588;13.370;2023-04-25T09:57:16;11.20;92.60
9772;DHT22;4925;52.588;13.370;2023-04-25T09:59:44;11.10;91.80
9772;DHT22;4925;52.588;13.370;2023-04-25T10:02:12;10.80;92.20
9772;DHT22;4925;52.588;13.370;2023-04-25T10:04:38;10.90;93.30
9772;DHT22;4925;52.588;13.370;2023-04-25T10:07:08;10.90;92.00
9772;DHT22;4925;52.588;13.370;2023-04-25T10:09:37;11.10;91.60
9772;DHT22;4925;52.588;13.370;2023-04-25T10:12:05;11.50;91.40
9772;DHT22;4925;52.588;13.370;2023-04-25T10:14:31;11.70;90.70
9772;DHT22;4925;52.588;13.370;2023-04-25T10:16:58;11.80;90.50
9772;DHT22;4925;52.588;13.370;2023-04-25T10:19:25;12.00;90.70
9772;DHT22;4925;52.588;13.370;2023-04-25T10:24:23;12.50;90.00
9772;DHT22;4925;52.588;13.370;2023-04-25T10:26:50;12.50;89.00
9772;DHT22;4925;52.588;13.370;2023-04-25T10:29:24;12.60;88.50
9772;DHT22;4925;52.588;13.370;2023-04-25T10:31:50;12.60;88.70
9772;DHT22;4925;52.588;13.370;2023-04-25T10:34:16;12.70;88.40
9772;DHT22;4925;52.588;13.370;2023-04-25T10:36:42;12.80;88.30
9772;DHT22;4925;52.588;13.370;2023-04-25T10:39:24;12.70;88.90
9772;DHT22;4925;52.588;13.370;2023-04-25T10:42:02;12.30;85.50
9772;DHT22;4925;52.588;13.370;2023-04-25T10:44:29;11.80;86.80
9772;DHT22;4925;52.588;13.370;2023-04-25T10:46:56;11.60;88.50
9772;DHT22;4925;52.588;13.370;2023-04-25T10:49:31;11.50;87.30
9772;DHT22;4925;52.588;13.370;2023-04-25T10:54:53;11.20;87.70
9772;DHT22;4925;52.588;13.370;2023-04-25T11:02:27;12.10;85.20
9772;DHT22;4925;52.588;13.370;2023-04-25T11:04:54;12.30;83.30
9772;DHT22;4925;52.588;13.370;2023-04-25T11:07:26;12.40;83.40
9772;DHT22;4925;52.588;13.370;2023-04-25T11:09:54;12.20;84.20
9772;DHT22;4925;52.588;13.370;2023-04-25T11:12:19;11.90;84.80
9772;DHT22;4925;52.588;13.370;2023-04-25T11:14:45;11.80;86.20
9772;DHT22;4925;52.588;13.370;2023-04-25T11:17:11;11.90;86.00
9772;DHT22;4925;52.588;13.370;2023-04-25T11:19:37;11.80;85.90
9772;DHT22;4925;52.588;13.370;2023-04-25T11:22:03;11.50;84.50
9772;DHT22;4925;52.588;13.370;2023-04-25T11:24:33;11.60;85.10
9772;DHT22;4925;52.588;13.370;2023-04-25T11:27:01;11.70;84.10
9772;DHT22;4925;52.588;13.370;2023-04-25T11:29:31;11.80;84.30
9772;DHT22;4925;52.588;13.370;2023-04-25T11:31:57;11.90;83.70
9772;DHT22;4925;52.588;13.370;2023-04-25T11:34:27;11.90;80.50
9772;DHT22;4925;52.588;13.370;2023-04-25T11:36:53;12.20;79.30
9772;DHT22;4925;52.588;13.370;2023-04-25T11:39:20;12.20;79.30
9772;DHT22;4925;52.588;13.370;2023-04-25T11:41:46;12.30;77.40
9772;DHT22;4925;52.588;13.370;2023-04-25T11:44:15;12.40;78.50
9772;DHT22;4925;52.588;13.370;2023-04-25T11:46:42;12.50;78.00
9772;DHT22;4925;52.588;13.370;2023-04-25T11:49:08;12.40;77.70
9772;DHT22;4925;52.588;13.370;2023-04-25T11:51:44;11.60;78.80
9772;DHT22;4925;52.588;13.370;2023-04-25T11:54:11;11.50;82.00
9772;DHT22;4925;52.588;13.370;2023-04-25T11:56:37;11.90;82.70
9772;DHT22;4925;52.588;13.370;2023-04-25T11:59:05;12.10;81.70
9772;DHT22;4925;52.588;13.370;2023-04-25T12:01:36;12.20;80.90
9772;DHT22;4925;52.588;13.370;2023-04-25T12:06:45;12.10;78.30
9772;DHT22;4925;52.588;13.370;2023-04-25T12:09:15;12.20;79.10
9772;DHT22;4925;52.588;13.370;2023-04-25T12:11:47;12.40;80.00
9772;DHT22;4925;52.588;13.370;2023-04-25T12:14:24;12.40;79.10
9772;DHT22;4925;52.588;13.370;2023-04-25T12:16:52;12.20;84.10
9772;DHT22;4925;52.588;13.370;2023-04-25T12:19:21;12.10;81.00
9772;DHT22;4925;52.588;13.370;2023-04-25T12:21:47;12.10;80.60
9772;DHT22;4925;52.588;13.370;2023-04-25T12:24:24;12.10;79.70
9772;DHT22;4925;52.588;13.370;2023-04-25T12:27:01;11.90;77.70
9772;DHT22;4925;52.588;13.370;2023-04-25T12:29:29;12.30;78.60
9772;DHT22;4925;52.588;13.370;2023-04-25T12:31:55;12.20;78.00
9772;DHT22;4925;52.588;13.370;2023-04-25T12:34:22;12.00;78.00
9772;DHT22;4925;52.588;13.370;2023-04-25T12:36:50;11.60;79.10
9772;DHT22;4925;52.588;13.370;2023-04-25T12:41:45;11.80;80.50
9772;DHT22;4925;52.588;13.370;2023-04-25T12:44:12;11.80;80.90
9772;DHT22;4925;52.588;13.370;2023-04-25T12:46:38;11.70;79.70
9772;DHT22;4925;52.588;13.370;2023-04-25T12:49:04;11.80;81.70
9772;DHT22;4925;52.588;13.370;2023-04-25T12:51:31;11.80;81.20
9772;DHT22;4925;52.588;13.370;2023-04-25T12:54:02;11.70;79.70
9772;DHT22;4925;52.588;13.370;2023-04-25T12:56:28;11.50;80.40
9772;DHT22;4925;52.588;13.370;2023-04-25T12:58:54;11.60;81.40
9772;DHT22;4925;52.588;13.370;2023-04-25T13:01:20;11.90;81.20
9772;DHT22;4925;52.588;13.370;2023-04-25T13:03:47;12.20;79.30
9772;DHT22;4925;52.588;13.370;2023-04-25T13:06:13;12.40;78.20
9772;DHT22;4925;52.588;13.370;2023-04-25T13:08:39;12.90;76.20
9772;DHT22;4925;52.588;13.370;2023-04-25T13:11:06;13.50;71.20
9772;DHT22;4925;52.588;13.370;2023-04-25T13:13:32;13.30;68.90
9772;DHT22;4925;52.588;13.370;2023-04-25T13:16:00;13.70;70.00
9772;DHT22;4925;52.588;13.370;2023-04-25T13:18:29;13.60;67.00
9772;DHT22;4925;52.588;13.370;2023-04-25T13:20:54;13.40;68.30
9772;DHT22;4925;52.588;13.370;2023-04-25T13:23:21;13.30;68.70
9772;DHT22;4925;52.588;13.370;2023-04-25T13:25:47;13.10;70.50
9772;DHT22;4925;52.588;13.370;2023-04-25T13:28:13;12.50;71.90
9772;DHT22;4925;52.588;13.370;2023-04-25T13:30:39;12.10;74.20
9772;DHT22;4925;52.588;13.370;2023-04-25T13:33:05;12.10;76.60
9772;DHT22;4925;52.588;13.370;2023-04-25T13:35:33;12.10;77.70
9772;DHT22;4925;52.588;13.370;2023-04-25T13:38:00;11.80;79.30
9772;DHT22;4925;52.588;13.370;2023-04-25T13:40:26;11.80;80.80
9772;DHT22;4925;52.588;13.370;2023-04-25T13:42:52;11.70;81.80
9772;DHT22;4925;52.588;13.370;2023-04-25T13:45:18;11.50;82.60
9772;DHT22;4925;52.588;13.370;2023-04-25T13:47:44;11.20;84.20
9772;DHT22;4925;52.588;13.370;2023-04-25T13:50:10;10.90;85.70
9772;DHT22;4925;52.588;13.370;2023-04-25T13:52:35;10.90;87.80
9772;DHT22;4925;52.588;13.370;2023-04-25T13:55:01;10.90;88.60
9772;DHT22;4925;52.588;13.370;2023-04-25T13:57:33;11.20;89.20
9772;DHT22;4925;52.588;13.370;2023-04-25T13:59:59;11.40;87.10
9772;DHT22;4925;52.588;13.370;2023-04-25T14:02:30;11.40;87.00
9772;DHT22;4925;52.588;13.370;2023-04-25T14:04:56;11.80;86.20
9772;DHT22;4925;52.588;13.370;2023-04-25T14:07:21;12.00;85.60
9772;DHT22;4925;52.588;13.370;2023-04-25T14:09:47;12.00;83.80
9772;DHT22;4925;52.588;13.370;2023-04-25T14:12:13;12.00;84.50
9772;DHT22;4925;52.588;13.370;2023-04-25T14:14:38;12.10;84.60
9772;DHT22;4925;52.588;13.370;2023-04-25T14:17:04;12.00;83.10
9772;DHT22;4925;52.588;13.370;2023-04-25T14:19:30;12.10;84.20
9772;DHT22;4925;52.588;13.370;2023-04-25T14:21:56;11.90;84.40
9772;DHT22;4925;52.588;13.370;2023-04-25T14:24:22;11.50;85.50
9772;DHT22;4925;52.588;13.370;2023-04-25T14:26:47;11.10;87.10
9772;DHT22;4925;52.588;13.370;2023-04-25T14:29:13;10.80;88.70
9772;DHT22;4925;52.588;13.370;2023-04-25T14:31:39;10.90;90.10
9772;DHT22;4925;52.588;13.370;2023-04-25T14:34:06;11.10;90.00
9772;DHT22;4925;52.588;13.370;2023-04-25T14:36:32;11.10;89.50
9772;DHT22;4925;52.588;13.370;2023-04-25T14:38:58;11.10;89.30
9772;DHT22;4925;52.588;13.370;2023-04-25T14:41:25;10.90;90.10
9772;DHT22;4925;52.588;13.370;2023-04-25T14:43:51;10.70;91.20
9772;DHT22;4925;52.588;13.370;2023-04-25T14:46:18;10.70;91.70
9772;DHT22;4925;52.588;13.370;2023-04-25T14:48:45;10.60;92.30
9772;DHT22;4925;52.588;13.370;2023-04-25T14:51:11;10.30;92.50
9772;DHT22;4925;52.588;13.370;2023-04-25T14:53:37;10.30;93.20
9772;DHT22;4925;52.588;13.370;2023-04-25T14:56:03;10.20;94.00
9772;DHT22;4925;52.588;13.370;2023-04-25T14:58:28;10.20;94.30
9772;DHT22;4925;52.588;13.370;2023-04-25T15:00:54;10.30;94.00
9772;DHT22;4925;52.588;13.370;2023-04-25T15:03:20;10.30;93.90
9772;DHT22;4925;52.588;13.370;2023-04-25T15:05:46;10.50;94.00
9772;DHT22;4925;52.588;13.370;2023-04-25T15:08:11;10.30;93.70
9772;DHT22;4925;52.588;13.370;2023-04-25T15:10:37;10.30;94.20
9772;DHT22;4925;52.588;13.370;2023-04-25T15:13:03;10.40;94.30
9772;DHT22;4925;52.588;13.370;2023-04-25T15:15:29;10.30;94.20
9772;DHT22;4925;52.588;13.370;2023-04-25T15:17:55;10.20;94.10
9772;DHT22;4925;52.588;13.370;2023-04-25T15:20:22;10.20;92.80
9772;DHT22;4925;52.588;13.370;2023-04-25T15:22:48;10.20;92.20
9772;DHT22;4925;52.588;13.370;2023-04-25T15:25:15;10.40;92.30
9772;DHT22;4925;52.588;13.370;2023-04-25T15:27:43;10.50;91.50
9772;DHT22;4925;52.588;13.370;2023-04-25T15:30:14;10.20;90.70
9772;DHT22;4925;52.588;13.370;2023-04-25T15:32:44;10.20;91.00
9772;DHT22;4925;52.588;13.370;2023-04-25T15:35:10;10.50;91.10
9772;DHT22;4925;52.588;13.370;2023-04-25T15:37:36;10.60;90.60
9772;DHT22;4925;52.588;13.370;2023-04-25T15:42:39;10.90;89.90
9772;DHT22;4925;52.588;13.370;2023-04-25T15:45:07;11.10;89.70
9772;DHT22;4925;52.588;13.370;2023-04-25T15:47:34;11.30;89.50
9772;DHT22;4925;52.588;13.370;2023-04-25T15:50:01;11.50;89.10
9772;DHT22;4925;52.588;13.370;2023-04-25T15:52:29;11.40;89.30
9772;DHT22;4925;52.588;13.370;2023-04-25T15:54:55;10.90;90.40
9772;DHT22;4925;52.588;13.370;2023-04-25T15:57:21;10.60;91.10
9772;DHT22;4925;52.588;13.370;2023-04-25T15:59:48;10.60;91.50
9772;DHT22;4925;52.588;13.370;2023-04-25T16:02:14;10.60;91.30
9772;DHT22;4925;52.588;13.370;2023-04-25T16:04:40;10.60;91.40
9772;DHT22;4925;52.588;13.370;2023-04-25T16:07:06;10.70;91.60
9772;DHT22;4925;52.588;13.370;2023-04-25T16:09:34;10.60;91.30
9772;DHT22;4925;52.588;13.370;2023-04-25T16:12:00;10.90;91.50